Time;durP1;ratioP1;P1;durP2;ratioP2;P2;SDS_P1;SDS_P2;PMS_P1;PMS_P2;Temp;Humidity;BMP_temperature;BMP_pressure;BME280_temperature;BME280_humidity;BME280_pressure;Samples;Min_cycle;Max_cycle;Signal;HPM_P1;HPM_P2
2024/02/03 00:02:05;;;;;;;27.02;16.42;;;;;;;;;;5089179;28;20131;-72
2024/02/03 00:04:31;;;;;;;23.42;14.60;;;;;;;;;;5079845;28;20118;-70
2024/02/03 00:06:58;;;;;;;22.25;14.60;;;;;;;;;;5079016;28;20127;-69
2024/02/03 00:09:24;;;;;;;29.45;15.98;;;;;;;;;;5078378;28;20099;-70
2024/02/03 00:11:51;;;;;;;25.75;15.95;;;;;;;;;;5080605;28;20040;-71
2024/02/03 00:14:17;;;;;;;23.60;14.35;;;;;;;;;;5072316;28;20131;-73
2024/02/03 00:16:44;;;;;;;26.98;15.32;;;;;;;;;;5057200;28;20153;-72
2024/02/03 00:19:10;;;;;;;24.20;14.70;;;;;;;;;;5056652;28;20110;-72
2024/02/03 00:21:37;;;;;;;24.27;15.35;;;;;;;;;;5063254;28;20047;-72
2024/02/03 00:24:04;;;;;;;21.00;13.45;;;;;;;;;;5073722;28;20048;-72
2024/02/03 00:26:30;;;;;;;25.08;14.05;;;;;;;;;;5070131;28;20048;-71
2024/02/03 00:28:57;;;;;;;18.73;13.68;;;;;;;;;;5075326;28;20047;-71
2024/02/03 00:31:23;;;;;;;20.27;13.90;;;;;;;;;;5067890;28;20053;-73
2024/02/03 00:33:50;;;;;;;22.45;15.40;;;;;;;;;;5079806;28;20048;-71
2024/02/03 00:36:21;;;;;;;23.98;14.63;;;;;;;;;;5084251;28;20468;-71
2024/02/03 00:38:48;;;;;;;24.38;13.95;;;;;;;;;;5075264;28;20129;-73
2024/02/03 00:41:14;;;;;;;22.05;14.95;;;;;;;;;;5061977;28;20658;-71
2024/02/03 00:43:40;;;;;;;23.25;14.98;;;;;;;;;;5077987;28;20044;-71
2024/02/03 00:46:08;;;;;;;24.23;15.35;;;;;;;;;;5088202;28;20129;-72
2024/02/03 00:48:35;;;;;;;21.90;14.53;;;;;;;;;;5053244;28;20047;-69
2024/02/03 00:51:02;;;;;;;20.58;14.43;;;;;;;;;;5085068;28;21178;-69
2024/02/03 00:53:29;;;;;;;21.20;14.13;;;;;;;;;;5063624;28;20143;-70
2024/02/03 00:55:55;;;;;;;23.33;14.63;;;;;;;;;;5075310;28;20169;-69
2024/02/03 00:58:21;;;;;;;25.40;14.63;;;;;;;;;;5080054;28;20052;-69
2024/02/03 01:00:48;;;;;;;22.67;14.80;;;;;;;;;;5079082;28;20148;-68
2024/02/03 01:03:14;;;;;;;22.63;13.88;;;;;;;;;;5067302;28;20095;-70
2024/02/03 01:05:41;;;;;;;26.58;14.50;;;;;;;;;;5067640;28;20087;-69
2024/02/03 01:08:13;;;;;;;19.38;13.07;;;;;;;;;;5076775;28;20504;-70
2024/02/03 01:10:39;;;;;;;18.83;12.52;;;;;;;;;;5081488;28;20135;-70
2024/02/03 01:13:07;;;;;;;19.38;12.80;;;;;;;;;;5077400;28;20048;-71
2024/02/03 01:15:34;;;;;;;19.58;13.13;;;;;;;;;;5076253;28;20060;-70
2024/02/03 01:18:03;;;;;;;24.45;14.40;;;;;;;;;;5082733;28;20048;-69
2024/02/03 01:20:29;;;;;;;;;;;;;;;;;;5081804;28;20328;-69
2024/02/03 01:22:56;;;;;;;20.13;11.52;;;;;;;;;;5078761;28;20019;-68
2024/02/03 01:25:22;;;;;;;20.67;11.32;;;;;;;;;;5078910;28;20051;-69
2024/02/03 01:27:49;;;;;;;20.73;11.60;;;;;;;;;;5092250;28;20044;-70
2024/02/03 01:30:15;;;;;;;18.15;11.73;;;;;;;;;;5064057;28;20045;-68
2024/02/03 01:32:42;;;;;;;18.35;10.73;;;;;;;;;;5084522;28;20521;-71
2024/02/03 01:35:09;;;;;;;16.58;10.63;;;;;;;;;;5075302;28;20048;-70
2024/02/03 01:37:36;;;;;;;16.52;10.57;;;;;;;;;;5073112;28;20054;-69
2024/02/03 01:40:03;;;;;;;14.27;10.35;;;;;;;;;;5074743;28;20094;-69
2024/02/03 01:42:29;;;;;;;17.83;10.35;;;;;;;;;;5083846;28;20079;-71
2024/02/03 01:44:56;;;;;;;16.60;10.55;;;;;;;;;;5087407;28;20040;-69
2024/02/03 01:47:22;;;;;;;16.40;9.85;;;;;;;;;;5082363;28;20079;-69
2024/02/03 01:49:51;;;;;;;18.63;9.50;;;;;;;;;;5063421;28;20055;-73
2024/02/03 01:52:17;;;;;;;20.35;10.30;;;;;;;;;;5078863;28;20143;-72
2024/02/03 01:54:45;;;;;;;14.90;9.07;;;;;;;;;;5083973;28;20530;-70
2024/02/03 01:57:12;;;;;;;18.67;9.75;;;;;;;;;;5077486;28;20486;-69
2024/02/03 01:59:39;;;;;;;17.48;9.93;;;;;;;;;;5084201;28;20043;-71
2024/02/03 02:02:06;;;;;;;17.58;9.77;;;;;;;;;;5086723;28;20515;-68
2024/02/03 02:04:32;;;;;;;16.85;9.93;;;;;;;;;;5076216;28;20071;-69
2024/02/03 02:06:59;;;;;;;14.05;8.70;;;;;;;;;;5085917;28;20485;-71
2024/02/03 02:09:26;;;;;;;16.80;9.20;;;;;;;;;;5089428;28;20457;-69
2024/02/03 02:11:54;;;;;;;16.45;9.05;;;;;;;;;;5081797;28;20048;-70
2024/02/03 02:14:21;;;;;;;14.85;8.60;;;;;;;;;;5085122;28;20105;-69
2024/02/03 02:16:48;;;;;;;14.02;8.93;;;;;;;;;;5096490;28;20038;-69
2024/02/03 02:19:17;;;;;;;16.40;9.63;;;;;;;;;;5099705;28;20449;-71
2024/02/03 02:21:44;;;;;;;16.20;8.88;;;;;;;;;;5087072;28;20849;-70
2024/02/03 02:24:11;;;;;;;15.43;9.05;;;;;;;;;;5088745;28;20055;-70
2024/02/03 02:26:38;;;;;;;15.25;9.05;;;;;;;;;;5066647;28;20077;-72
2024/02/03 02:29:04;;;;;;;16.67;8.25;;;;;;;;;;5059541;28;20147;-70
2024/02/03 02:31:31;;;;;;;15.15;8.50;;;;;;;;;;5084105;28;20047;-70
2024/02/03 02:33:57;;;;;;;13.40;8.40;;;;;;;;;;5075288;28;20059;-70
2024/02/03 02:36:24;;;;;;;12.93;7.45;;;;;;;;;;5067712;28;20097;-70
2024/02/03 02:38:50;;;;;;;13.68;7.88;;;;;;;;;;5068882;28;20106;-72
2024/02/03 02:41:17;;;;;;;17.95;7.65;;;;;;;;;;5090580;28;20131;-70
2024/02/03 02:43:43;;;;;;;11.10;7.38;;;;;;;;;;5068688;28;20052;-69
2024/02/03 02:46:10;;;;;;;14.13;7.85;;;;;;;;;;5088805;28;20151;-71
2024/02/03 02:48:37;;;;;;;13.15;7.72;;;;;;;;;;5070139;28;20711;-70
2024/02/03 02:51:03;;;;;;;15.00;8.00;;;;;;;;;;5090701;28;20075;-69
2024/02/03 02:53:30;;;;;;;16.85;7.32;;;;;;;;;;5082704;28;20064;-69
2024/02/03 02:55:56;;;;;;;12.02;7.25;;;;;;;;;;5079229;28;20524;-69
2024/02/03 02:58:26;;;;;;;13.38;7.78;;;;;;;;;;5059685;28;20125;-70
2024/02/03 03:00:52;;;;;;;16.05;7.70;;;;;;;;;;5065521;28;20048;-70
2024/02/03 03:03:19;;;;;;;16.35;8.57;;;;;;;;;;5083712;28;20039;-69
2024/02/03 03:05:46;;;;;;;11.40;7.05;;;;;;;;;;5083332;28;20041;-69
2024/02/03 03:08:12;;;;;;;18.42;7.65;;;;;;;;;;5072835;28;20158;-71
2024/02/03 03:10:39;;;;;;;13.02;7.90;;;;;;;;;;5075102;28;20477;-69
2024/02/03 03:13:05;;;;;;;13.38;7.47;;;;;;;;;;5064860;28;20048;-69
2024/02/03 03:15:32;;;;;;;11.70;8.50;;;;;;;;;;5072136;28;20043;-69
2024/02/03 03:17:58;;;;;;;15.02;8.18;;;;;;;;;;5080125;28;20040;-69
2024/02/03 03:20:25;;;;;;;12.13;7.93;;;;;;;;;;5074501;28;20067;-69
2024/02/03 03:22:51;;;;;;;14.30;8.98;;;;;;;;;;5082017;28;20783;-69
2024/02/03 03:25:18;;;;;;;13.57;8.40;;;;;;;;;;5064720;28;20052;-68
2024/02/03 03:27:45;;;;;;;14.50;9.90;;;;;;;;;;5047086;28;20052;-69
2024/02/03 03:30:12;;;;;;;14.43;8.75;;;;;;;;;;5085408;28;20150;-69
2024/02/03 03:32:38;;;;;;;17.27;8.65;;;;;;;;;;5074337;28;20051;-70
2024/02/03 03:35:05;;;;;;;15.07;9.40;;;;;;;;;;5085664;28;20138;-69
2024/02/03 03:37:31;;;;;;;13.02;8.00;;;;;;;;;;5062767;28;20778;-70
2024/02/03 03:39:58;;;;;;;14.93;8.32;;;;;;;;;;5081758;28;20097;-72
2024/02/03 03:42:25;;;;;;;14.45;8.10;;;;;;;;;;5068781;28;20051;-69
2024/02/03 03:44:51;;;;;;;12.70;8.00;;;;;;;;;;5085928;28;20545;-69
2024/02/03 03:47:21;;;;;;;12.15;8.50;;;;;;;;;;5085838;28;20396;-72
2024/02/03 03:49:47;;;;;;;12.88;8.52;;;;;;;;;;5080191;28;20036;-68
2024/02/03 03:52:14;;;;;;;16.92;8.57;;;;;;;;;;5080190;28;20054;-69
2024/02/03 03:54:40;;;;;;;16.80;8.73;;;;;;;;;;5080604;28;20059;-69
2024/02/03 03:57:12;;;;;;;;;;;;;;;;;;5062749;28;20055;-71
2024/02/03 03:59:39;;;;;;;16.42;7.95;;;;;;;;;;5088147;28;19965;-69
2024/02/03 04:02:05;;;;;;;12.20;8.07;;;;;;;;;;5080909;28;20048;-69
2024/02/03 04:04:32;;;;;;;11.63;8.00;;;;;;;;;;5071798;28;20072;-69
2024/02/03 04:06:58;;;;;;;12.43;7.80;;;;;;;;;;5058077;28;20052;-69
2024/02/03 04:09:25;;;;;;;14.82;7.55;;;;;;;;;;5043307;28;20129;-70
2024/02/03 04:11:51;;;;;;;12.32;7.65;;;;;;;;;;5060600;28;20096;-69
2024/02/03 04:14:18;;;;;;;13.55;7.85;;;;;;;;;;5066955;28;20098;-69
2024/02/03 04:16:44;;;;;;;14.98;8.05;;;;;;;;;;5089202;28;20035;-69
2024/02/03 04:19:11;;;;;;;12.20;7.45;;;;;;;;;;5075462;28;20084;-69
2024/02/03 04:21:37;;;;;;;14.32;7.85;;;;;;;;;;5062892;28;20059;-69
2024/02/03 04:24:04;;;;;;;13.18;8.82;;;;;;;;;;5056747;28;20785;-70
2024/02/03 04:26:31;;;;;;;13.20;7.68;;;;;;;;;;5083530;28;20455;-70
2024/02/03 04:28:57;;;;;;;13.15;7.85;;;;;;;;;;5066254;28;20048;-70
2024/02/03 04:31:23;;;;;;;11.45;7.97;;;;;;;;;;5079267;28;20716;-68
2024/02/03 04:33:50;;;;;;;13.48;7.68;;;;;;;;;;5084087;28;20840;-70
2024/02/03 04:36:17;;;;;;;14.35;7.85;;;;;;;;;;5075912;28;20059;-71
2024/02/03 04:38:44;;;;;;;13.32;7.53;;;;;;;;;;5084993;28;20047;-69
2024/02/03 04:41:19;;;;;;;13.20;7.43;;;;;;;;;;5095311;28;20131;-70
2024/02/03 04:43:46;;;;;;;16.33;7.45;;;;;;;;;;5065878;28;20050;-69
2024/02/03 04:46:12;;;;;;;15.88;7.93;;;;;;;;;;5080612;28;20048;-69
2024/02/03 04:48:38;;;;;;;14.65;7.68;;;;;;;;;;5056970;28;20044;-70
2024/02/03 04:51:05;;;;;;;11.43;7.53;;;;;;;;;;5061578;28;20045;-69
2024/02/03 04:53:31;;;;;;;16.70;8.07;;;;;;;;;;5061294;28;20044;-70
2024/02/03 04:55:58;;;;;;;11.35;7.47;;;;;;;;;;5064996;28;20052;-69
2024/02/03 04:58:24;;;;;;;16.40;7.57;;;;;;;;;;5083777;28;20056;-69
2024/02/03 05:00:51;;;;;;;12.32;7.10;;;;;;;;;;5078101;28;20075;-70
2024/02/03 05:03:17;;;;;;;14.23;7.60;;;;;;;;;;5053862;28;20040;-69
2024/02/03 05:05:45;;;;;;;10.32;6.90;;;;;;;;;;5069134;28;20054;-68
2024/02/03 05:08:12;;;;;;;13.37;7.97;;;;;;;;;;5081226;28;20040;-69
2024/02/03 05:10:38;;;;;;;16.48;6.90;;;;;;;;;;5082508;28;20703;-69
2024/02/03 05:13:04;;;;;;;15.90;7.80;;;;;;;;;;5074434;28;20048;-70
2024/02/03 05:15:31;;;;;;;10.60;6.97;;;;;;;;;;5073961;28;20141;-69
2024/02/03 05:17:57;;;;;;;13.38;7.72;;;;;;;;;;5077543;28;20045;-71
2024/02/03 05:20:24;;;;;;;11.88;6.70;;;;;;;;;;5069397;28;20048;-68
2024/02/03 05:22:50;;;;;;;12.20;7.05;;;;;;;;;;5081377;28;20085;-69
2024/02/03 05:25:17;;;;;;;11.90;6.38;;;;;;;;;;5065685;28;20105;-71
2024/02/03 05:27:43;;;;;;;14.75;7.68;;;;;;;;;;5078036;28;20072;-69
2024/02/03 05:30:10;;;;;;;14.60;7.63;;;;;;;;;;5063352;28;20625;-71
2024/02/03 05:32:36;;;;;;;10.50;6.57;;;;;;;;;;5082997;28;20048;-70
2024/02/03 05:35:03;;;;;;;11.82;5.88;;;;;;;;;;5082550;28;20459;-69
2024/02/03 05:37:29;;;;;;;11.38;6.18;;;;;;;;;;5067032;28;20098;-69
2024/02/03 05:39:55;;;;;;;11.10;6.40;;;;;;;;;;5076212;28;20131;-69
2024/02/03 05:42:22;;;;;;;13.30;6.22;;;;;;;;;;5087004;28;20105;-68
2024/02/03 05:44:49;;;;;;;14.27;6.20;;;;;;;;;;5089202;28;20047;-69
2024/02/03 05:47:15;;;;;;;10.30;5.25;;;;;;;;;;5076842;28;20044;-70
2024/02/03 05:49:42;;;;;;;12.50;5.85;;;;;;;;;;5087701;28;20104;-71
2024/02/03 05:52:08;;;;;;;9.73;5.80;;;;;;;;;;5064295;28;20059;-69
2024/02/03 05:54:34;;;;;;;12.65;6.63;;;;;;;;;;5087473;28;20060;-68
2024/02/03 05:57:01;;;;;;;11.77;5.53;;;;;;;;;;5084433;28;20047;-70
2024/02/03 05:59:27;;;;;;;12.10;5.93;;;;;;;;;;5074606;28;20622;-69
2024/02/03 06:01:58;;;;;;;11.75;5.25;;;;;;;;;;5077751;28;20129;-70
2024/02/03 06:04:30;;;;;;;10.43;5.47;;;;;;;;;;5066949;28;20040;-69
2024/02/03 06:06:57;;;;;;;9.00;4.80;;;;;;;;;;5071386;28;20098;-69
2024/02/03 06:09:25;;;;;;;14.98;6.00;;;;;;;;;;5080713;28;20039;-70
2024/02/03 06:11:52;;;;;;;12.32;4.57;;;;;;;;;;5084207;28;20720;-71
2024/02/03 06:14:18;;;;;;;11.90;5.88;;;;;;;;;;5081228;28;20090;-70
2024/02/03 06:16:45;;;;;;;13.32;5.18;;;;;;;;;;5075429;28;20052;-70
2024/02/03 06:19:11;;;;;;;11.25;5.38;;;;;;;;;;5087010;28;20052;-70
2024/02/03 06:21:38;;;;;;;13.98;4.97;;;;;;;;;;5077314;28;20052;-69
2024/02/03 06:24:04;;;;;;;9.25;4.60;;;;;;;;;;5099622;28;20526;-69
2024/02/03 06:26:31;;;;;;;11.88;4.90;;;;;;;;;;5069531;28;20044;-69
2024/02/03 06:28:58;;;;;;;13.43;4.45;;;;;;;;;;5064254;28;21062;-70
2024/02/03 06:31:24;;;;;;;11.82;5.25;;;;;;;;;;5088078;28;20692;-69
2024/02/03 06:33:51;;;;;;;9.30;4.15;;;;;;;;;;5080999;28;20052;-69
2024/02/03 06:36:17;;;;;;;11.00;5.22;;;;;;;;;;5069596;28;20090;-69
2024/02/03 06:38:43;;;;;;;8.82;4.53;;;;;;;;;;5079372;28;20043;-69
2024/02/03 06:41:14;;;;;;;15.60;4.78;;;;;;;;;;5077442;28;20146;-70
2024/02/03 06:43:41;;;;;;;11.38;4.22;;;;;;;;;;5083237;28;20059;-70
2024/02/03 06:46:07;;;;;;;9.40;4.32;;;;;;;;;;5068603;28;20135;-70
2024/02/03 06:48:34;;;;;;;10.88;4.22;;;;;;;;;;5087673;28;20113;-69
2024/02/03 06:51:00;;;;;;;11.48;4.72;;;;;;;;;;5081771;28;20063;-70
2024/02/03 06:53:27;;;;;;;11.07;4.20;;;;;;;;;;5081479;28;21037;-70
2024/02/03 06:55:53;;;;;;;10.48;4.35;;;;;;;;;;5077273;28;20098;-69
2024/02/03 06:58:20;;;;;;;14.35;4.82;;;;;;;;;;5067301;28;20550;-69
2024/02/03 07:00:46;;;;;;;10.55;4.60;;;;;;;;;;5059387;28;20055;-69
2024/02/03 07:03:13;;;;;;;11.57;4.43;;;;;;;;;;5089406;28;20043;-69
2024/02/03 07:05:40;;;;;;;9.98;4.32;;;;;;;;;;5084267;28;20055;-70
2024/02/03 07:08:07;;;;;;;8.75;5.20;;;;;;;;;;5060308;28;20067;-71
2024/02/03 07:10:33;;;;;;;14.93;4.80;;;;;;;;;;5069285;28;20049;-71
2024/02/03 07:13:00;;;;;;;10.63;4.32;;;;;;;;;;5068577;28;20076;-70
2024/02/03 07:15:26;;;;;;;11.98;4.93;;;;;;;;;;5069817;28;20063;-71
2024/02/03 07:17:53;;;;;;;7.88;4.10;;;;;;;;;;5095272;28;20058;-71
2024/02/03 07:20:20;;;;;;;17.40;5.05;;;;;;;;;;5072070;28;20044;-69
2024/02/03 07:22:46;;;;;;;12.75;4.72;;;;;;;;;;5069425;28;20119;-71
2024/02/03 07:25:13;;;;;;;12.70;4.90;;;;;;;;;;5096412;28;20119;-70
2024/02/03 07:27:39;;;;;;;9.85;5.65;;;;;;;;;;5085322;28;20043;-71
2024/02/03 07:30:07;;;;;;;10.02;4.38;;;;;;;;;;5084491;28;20040;-70
2024/02/03 07:32:33;;;;;;;9.75;4.50;;;;;;;;;;5061876;28;20705;-69
2024/02/03 07:35:00;;;;;;;10.18;4.18;;;;;;;;;;5082726;28;20050;-70
2024/02/03 07:37:27;;;;;;;14.82;4.90;;;;;;;;;;5065808;28;20758;-69
2024/02/03 07:39:53;;;;;;;11.55;4.53;;;;;;;;;;5082718;28;20110;-69
2024/02/03 07:42:20;;;;;;;17.90;5.88;;;;;;;;;;5080574;28;20496;-70
2024/02/03 07:44:47;;;;;;;9.85;4.45;;;;;;;;;;5077065;28;20063;-71
2024/02/03 07:47:13;;;;;;;8.95;4.40;;;;;;;;;;5080670;28;20071;-71
2024/02/03 07:49:40;;;;;;;11.32;4.65;;;;;;;;;;5063711;28;20040;-70
2024/02/03 07:52:07;;;;;;;13.20;5.40;;;;;;;;;;5066507;28;20044;-70
2024/02/03 07:54:33;;;;;;;11.88;5.22;;;;;;;;;;5077795;28;20076;-69
2024/02/03 07:57:00;;;;;;;8.05;4.70;;;;;;;;;;5075952;28;20040;-71
2024/02/03 07:59:27;;;;;;;12.82;5.63;;;;;;;;;;5066786;28;20376;-70
2024/02/03 08:01:53;;;;;;;15.20;5.82;;;;;;;;;;5063034;28;20110;-69
2024/02/03 08:04:19;;;;;;;10.00;5.25;;;;;;;;;;5089070;27;20133;-69
2024/02/03 08:06:46;;;;;;;14.57;5.72;;;;;;;;;;5044045;28;20048;-69
2024/02/03 08:09:12;;;;;;;12.90;5.88;;;;;;;;;;5082168;28;20075;-70
2024/02/03 08:11:56;;;;;;;13.40;5.80;;;;;;;;;;5077392;28;20054;-71
2024/02/03 08:14:23;;;;;;;16.58;5.63;;;;;;;;;;5063627;28;20062;-70
2024/02/03 08:16:49;;;;;;;13.85;6.32;;;;;;;;;;5088115;28;20090;-70
2024/02/03 08:19:16;;;;;;;14.88;6.60;;;;;;;;;;5074132;28;20052;-69
2024/02/03 08:21:42;;;;;;;12.10;5.72;;;;;;;;;;5051078;28;20052;-71
2024/02/03 08:24:09;;;;;;;13.30;6.70;;;;;;;;;;5070999;28;20063;-71
2024/02/03 08:26:35;;;;;;;15.25;6.78;;;;;;;;;;5065358;28;20062;-69
2024/02/03 08:29:05;;;;;;;15.30;6.53;;;;;;;;;;5060831;28;20627;-69
2024/02/03 08:31:31;;;;;;;15.93;6.97;;;;;;;;;;5073023;28;20044;-69
2024/02/03 08:33:58;;;;;;;12.85;6.38;;;;;;;;;;5070277;28;20059;-69
2024/02/03 08:36:25;;;;;;;13.27;6.68;;;;;;;;;;5061655;28;20105;-71
2024/02/03 08:38:51;;;;;;;18.25;6.70;;;;;;;;;;5086344;28;20051;-70
2024/02/03 08:41:17;;;;;;;19.55;7.38;;;;;;;;;;5079675;28;20048;-72
2024/02/03 08:43:44;;;;;;;13.40;6.38;;;;;;;;;;5082664;28;20052;-69
2024/02/03 08:46:10;;;;;;;17.50;7.10;;;;;;;;;;5077078;28;20064;-70
2024/02/03 08:48:37;;;;;;;18.52;6.47;;;;;;;;;;5051511;28;20142;-71
2024/02/03 08:51:04;;;;;;;14.45;6.25;;;;;;;;;;5081216;28;20117;-70
2024/02/03 08:53:31;;;;;;;14.55;6.18;;;;;;;;;;5076749;28;20451;-70
2024/02/03 08:55:58;;;;;;;14.07;6.63;;;;;;;;;;5069669;28;20055;-69
2024/02/03 08:58:25;;;;;;;12.25;6.18;;;;;;;;;;5085622;28;20062;-71
2024/02/03 09:00:51;;;;;;;13.48;6.20;;;;;;;;;;5063420;28;20083;-69
2024/02/03 09:03:18;;;;;;;11.85;6.47;;;;;;;;;;5064816;28;20052;-72
2024/02/03 09:05:44;;;;;;;16.33;6.55;;;;;;;;;;5051191;28;20048;-70
2024/02/03 09:08:11;;;;;;;18.55;6.88;;;;;;;;;;5072530;28;20531;-71
2024/02/03 09:10:37;;;;;;;14.18;7.28;;;;;;;;;;5067377;28;20064;-71
2024/02/03 09:13:03;;;;;;;13.30;6.50;;;;;;;;;;5078477;28;20055;-70
2024/02/03 09:15:30;;;;;;;21.95;7.60;;;;;;;;;;5060050;28;20139;-70
2024/02/03 09:18:00;;;;;;;16.10;6.88;;;;;;;;;;5081082;28;20063;-71
2024/02/03 09:20:27;;;;;;;19.05;6.75;;;;;;;;;;5085718;28;20381;-70
2024/02/03 09:22:53;;;;;;;17.02;7.05;;;;;;;;;;5083769;28;20047;-71
2024/02/03 09:25:20;;;;;;;17.48;6.43;;;;;;;;;;5078741;28;20059;-68
2024/02/03 09:27:46;;;;;;;14.63;6.18;;;;;;;;;;5077082;28;20055;-73
2024/02/03 09:30:13;;;;;;;13.57;6.10;;;;;;;;;;5061110;28;20051;-70
2024/02/03 09:32:39;;;;;;;12.00;5.40;;;;;;;;;;5077675;28;20135;-71
2024/02/03 09:35:06;;;;;;;22.20;6.03;;;;;;;;;;5072104;28;20056;-69
2024/02/03 09:37:33;;;;;;;16.27;6.57;;;;;;;;;;5092170;28;20051;-69
2024/02/03 09:40:03;;;;;;;14.00;6.10;;;;;;;;;;5091986;28;20143;-71
2024/02/03 09:42:30;;;;;;;13.50;6.78;;;;;;;;;;5064968;28;20041;-71
2024/02/03 09:44:57;;;;;;;12.80;6.95;;;;;;;;;;5070679;28;20053;-69
2024/02/03 09:47:23;;;;;;;18.83;7.68;;;;;;;;;;5076415;28;20447;-71
2024/02/03 09:49:50;;;;;;;17.00;7.32;;;;;;;;;;5086293;28;20047;-68
2024/02/03 09:52:17;;;;;;;18.55;7.00;;;;;;;;;;5086435;28;20062;-71
2024/02/03 09:54:47;;;;;;;16.27;7.07;;;;;;;;;;5087106;28;20823;-70
2024/02/03 09:57:13;;;;;;;24.52;6.70;;;;;;;;;;5054051;28;20130;-71
2024/02/03 09:59:40;;;;;;;13.85;6.75;;;;;;;;;;5072331;28;20080;-70
2024/02/03 10:02:06;;;;;;;16.33;7.38;;;;;;;;;;5066083;28;20441;-71
2024/02/03 10:04:37;;;;;;;13.75;5.80;;;;;;;;;;5078429;28;20101;-70
2024/02/03 10:07:04;;;;;;;19.15;6.80;;;;;;;;;;5063384;28;20147;-71
2024/02/03 10:09:30;;;;;;;16.30;6.82;;;;;;;;;;5076569;28;20048;-71
2024/02/03 10:12:17;;;;;;;12.25;5.88;;;;;;;;;;5064528;28;20075;-70
2024/02/03 10:15:05;;;;;;;11.35;6.03;;;;;;;;;;5064335;28;20042;-71
2024/02/03 10:17:32;;;;;;;19.25;6.15;;;;;;;;;;5090523;28;20052;-71
2024/02/03 10:19:59;;;;;;;16.70;6.10;;;;;;;;;;5082882;28;20853;-70
2024/02/03 10:22:26;;;;;;;14.18;5.32;;;;;;;;;;5083206;28;20055;-72
2024/02/03 10:24:56;;;;;;;14.70;5.93;;;;;;;;;;5073686;28;20147;-72
2024/02/03 10:27:23;;;;;;;12.23;4.85;;;;;;;;;;5065922;28;20136;-70
2024/02/03 10:29:54;;;;;;;11.80;4.70;;;;;;;;;;5071829;28;20048;-70
2024/02/03 10:32:22;;;;;;;14.48;4.88;;;;;;;;;;5072572;28;20055;-69
2024/02/03 10:34:53;;;;;;;12.57;4.73;;;;;;;;;;5088389;28;20096;-69
2024/02/03 10:37:19;;;;;;;16.15;4.90;;;;;;;;;;5086358;28;20371;-70
2024/02/03 10:39:47;;;;;;;18.48;4.70;;;;;;;;;;5062950;28;20083;-71
2024/02/03 10:42:22;;;;;;;16.42;4.60;;;;;;;;;;5071645;28;20865;-70
2024/02/03 10:44:51;;;;;;;17.50;5.03;;;;;;;;;;5065929;28;20485;-72
2024/02/03 10:47:23;;;;;;;13.60;5.13;;;;;;;;;;5068852;28;20044;-70
2024/02/03 10:49:50;;;;;;;13.25;4.93;;;;;;;;;;5076179;28;20051;-72
2024/02/03 10:52:19;;;;;;;10.52;4.40;;;;;;;;;;5088326;28;20758;-69
2024/02/03 10:54:47;;;;;;;10.73;4.60;;;;;;;;;;5081186;28;20044;-68
2024/02/03 10:57:15;;;;;;;;;;;;;;;;;;5076734;28;20051;-69
2024/02/03 10:59:42;;;;;;;8.52;3.60;;;;;;;;;;5082739;28;20020;-71
2024/02/03 11:02:16;;;;;;;15.25;4.53;;;;;;;;;;5077993;28;20496;-69
2024/02/03 11:04:42;;;;;;;16.55;3.90;;;;;;;;;;5065244;28;20052;-70
2024/02/03 11:07:09;;;;;;;11.27;3.80;;;;;;;;;;5079250;28;20056;-70
2024/02/03 11:09:39;;;;;;;9.52;3.53;;;;;;;;;;5087800;28;20699;-69
2024/02/03 11:12:11;;;;;;;7.28;3.65;;;;;;;;;;5081461;28;20044;-69
2024/02/03 11:14:42;;;;;;;14.20;3.95;;;;;;;;;;5076690;28;20058;-70
2024/02/03 11:17:10;;;;;;;10.65;3.83;;;;;;;;;;5085047;28;20048;-70
2024/02/03 11:19:37;;;;;;;;;;;;;;;;;;5075587;28;20047;-70
2024/02/03 11:22:05;;;;;;;10.00;3.78;;;;;;;;;;5054421;28;19924;-74
2024/02/03 11:24:35;;;;;;;8.82;3.97;;;;;;;;;;5069073;28;20128;-69
2024/02/03 11:27:03;;;;;;;10.18;4.57;;;;;;;;;;5079935;28;20051;-72
2024/02/03 11:29:30;;;;;;;6.88;3.13;;;;;;;;;;5065221;28;20049;-71
2024/02/03 11:31:57;;;;;;;18.27;5.05;;;;;;;;;;5067511;28;20112;-69
2024/02/03 11:34:25;;;;;;;9.23;3.92;;;;;;;;;;5079671;28;20189;-69
2024/02/03 11:36:51;;;;;;;11.33;3.70;;;;;;;;;;5066334;28;20075;-69
2024/02/03 11:39:30;;;;;;;12.35;4.13;;;;;;;;;;5081814;28;20058;-69
2024/02/03 11:41:57;;;;;;;7.22;3.33;;;;;;;;;;5082271;28;20064;-72
2024/02/03 11:44:27;;;;;;;9.60;4.05;;;;;;;;;;5076542;28;20627;-69
2024/02/03 11:46:53;;;;;;;7.25;2.90;;;;;;;;;;5076718;28;20077;-68
2024/02/03 11:49:20;;;;;;;10.43;3.85;;;;;;;;;;5068887;28;20510;-69
2024/02/03 11:51:46;;;;;;;12.70;3.78;;;;;;;;;;5077000;28;20467;-69
2024/02/03 11:54:13;;;;;;;9.52;3.83;;;;;;;;;;5073877;28;20044;-70
2024/02/03 11:56:41;;;;;;;10.70;3.65;;;;;;;;;;5079233;28;20827;-70
2024/02/03 11:59:08;;;;;;;7.90;4.00;;;;;;;;;;5087945;28;20052;-74
2024/02/03 12:01:37;;;;;;;6.35;3.10;;;;;;;;;;5056807;28;20076;-69
2024/02/03 12:04:04;;;;;;;8.07;3.75;;;;;;;;;;5063131;28;20094;-69
2024/02/03 12:06:30;;;;;;;11.23;4.13;;;;;;;;;;5067370;28;20044;-68
2024/02/03 12:08:57;;;;;;;9.07;4.18;;;;;;;;;;5082961;28;20052;-70
2024/02/03 12:11:23;;;;;;;7.90;3.33;;;;;;;;;;5087849;28;20099;-69
2024/02/03 12:13:51;;;;;;;7.70;3.22;;;;;;;;;;5075424;28;20106;-71
2024/02/03 12:16:17;;;;;;;6.60;3.50;;;;;;;;;;5066472;28;20125;-71
2024/02/03 12:18:45;;;;;;;6.07;3.38;;;;;;;;;;5063840;28;20125;-71
2024/02/03 12:21:11;;;;;;;9.77;3.67;;;;;;;;;;5074037;28;20056;-70
2024/02/03 12:23:38;;;;;;;9.95;4.15;;;;;;;;;;5072023;28;20048;-71
2024/02/03 12:26:04;;;;;;;9.30;3.72;;;;;;;;;;5077458;28;20059;-70
2024/02/03 12:28:31;;;;;;;9.82;3.58;;;;;;;;;;5070212;28;20101;-70
2024/02/03 12:30:58;;;;;;;9.32;4.35;;;;;;;;;;5077582;28;20048;-70
2024/02/03 12:33:26;;;;;;;7.90;3.53;;;;;;;;;;5078939;28;20048;-70
2024/02/03 12:35:53;;;;;;;9.15;4.22;;;;;;;;;;5068419;28;20120;-70
2024/02/03 12:38:21;;;;;;;10.95;5.10;;;;;;;;;;5071764;28;20503;-70
2024/02/03 12:40:51;;;;;;;8.90;4.38;;;;;;;;;;5060014;28;20450;-70
2024/02/03 12:43:18;;;;;;;8.43;4.50;;;;;;;;;;5071683;28;20730;-71
2024/02/03 12:45:44;;;;;;;10.07;4.47;;;;;;;;;;5056551;28;20134;-69
2024/02/03 12:48:11;;;;;;;11.52;5.28;;;;;;;;;;5056425;28;20044;-68
2024/02/03 12:50:37;;;;;;;11.63;4.68;;;;;;;;;;5076093;28;20059;-71
2024/02/03 12:53:05;;;;;;;8.93;4.90;;;;;;;;;;5070558;28;20123;-70
2024/02/03 12:55:31;;;;;;;8.60;4.63;;;;;;;;;;5087118;28;20502;-70
2024/02/03 12:57:59;;;;;;;7.60;4.38;;;;;;;;;;5079933;28;20066;-70
2024/02/03 13:00:26;;;;;;;9.60;4.30;;;;;;;;;;5076251;28;20048;-69
2024/02/03 13:02:56;;;;;;;10.50;4.47;;;;;;;;;;5079265;28;20056;-70
2024/02/03 13:05:22;;;;;;;10.85;4.68;;;;;;;;;;5061374;28;20052;-69
2024/02/03 13:07:51;;;;;;;11.35;5.07;;;;;;;;;;5062954;28;20056;-71
2024/02/03 13:10:17;;;;;;;13.13;5.43;;;;;;;;;;5078227;28;20113;-72
2024/02/03 13:12:44;;;;;;;6.95;4.50;;;;;;;;;;5067152;28;20056;-69
2024/02/03 13:15:11;;;;;;;7.05;4.10;;;;;;;;;;5074420;28;20513;-70
2024/02/03 13:17:38;;;;;;;6.30;3.88;;;;;;;;;;5060458;28;20457;-70
2024/02/03 13:20:05;;;;;;;7.82;4.38;;;;;;;;;;5070102;28;20059;-71
2024/02/03 13:22:32;;;;;;;8.13;4.13;;;;;;;;;;5077218;28;20102;-70
2024/02/03 13:24:59;;;;;;;10.15;5.25;;;;;;;;;;5067827;28;20047;-70
2024/02/03 13:27:26;;;;;;;9.38;5.28;;;;;;;;;;5053583;28;20147;-72
2024/02/03 13:29:53;;;;;;;8.90;4.63;;;;;;;;;;5070947;28;20064;-71
2024/02/03 13:32:20;;;;;;;8.15;4.78;;;;;;;;;;5081906;28;20044;-70
2024/02/03 13:34:49;;;;;;;8.68;4.72;;;;;;;;;;5058127;28;20158;-70
2024/02/03 13:37:15;;;;;;;10.38;4.63;;;;;;;;;;5068775;28;20045;-70
2024/02/03 13:39:42;;;;;;;8.27;4.28;;;;;;;;;;5077506;28;20404;-71
2024/02/03 13:42:08;;;;;;;7.05;3.83;;;;;;;;;;5064761;28;20045;-70
2024/02/03 13:44:35;;;;;;;6.90;3.70;;;;;;;;;;5070759;28;20419;-72
2024/02/03 13:47:01;;;;;;;8.00;3.80;;;;;;;;;;5081292;28;20469;-71
2024/02/03 13:49:28;;;;;;;5.80;3.83;;;;;;;;;;5087949;28;20079;-69
2024/02/03 13:51:54;;;;;;;8.45;3.58;;;;;;;;;;5082506;28;20051;-70
2024/02/03 13:54:21;;;;;;;5.10;3.40;;;;;;;;;;5088910;28;20055;-71
2024/02/03 13:56:47;;;;;;;5.60;3.70;;;;;;;;;;5068504;28;20503;-73
2024/02/03 13:59:14;;;;;;;6.03;3.65;;;;;;;;;;5066071;28;20048;-69
2024/02/03 14:01:40;;;;;;;7.05;3.90;;;;;;;;;;5087522;28;20052;-70
2024/02/03 14:04:07;;;;;;;8.80;4.18;;;;;;;;;;5063657;28;20105;-71
2024/02/03 14:06:33;;;;;;;8.63;4.07;;;;;;;;;;5066633;28;20071;-71
2024/02/03 14:09:00;;;;;;;7.38;3.60;;;;;;;;;;5079856;28;20058;-71
2024/02/03 14:11:28;;;;;;;7.63;3.40;;;;;;;;;;5082176;28;20068;-69
2024/02/03 14:14:14;;;;;;;4.68;3.30;;;;;;;;;;5055362;28;20047;-70
2024/02/03 14:16:42;;;;;;;5.75;3.28;;;;;;;;;;5088202;28;20573;-69
2024/02/03 14:19:08;;;;;;;10.18;3.30;;;;;;;;;;5098875;28;20048;-70
2024/02/03 14:21:35;;;;;;;6.63;3.50;;;;;;;;;;5081513;28;20084;-69
2024/02/03 14:24:01;;;;;;;8.20;3.65;;;;;;;;;;5077365;28;20087;-70
2024/02/03 14:26:28;;;;;;;6.68;3.22;;;;;;;;;;5071979;28;20147;-69
2024/02/03 14:28:54;;;;;;;8.55;3.10;;;;;;;;;;5082495;28;20040;-69
2024/02/03 14:31:20;;;;;;;5.00;3.08;;;;;;;;;;5080545;28;20128;-71
2024/02/03 14:33:47;;;;;;;7.88;3.90;;;;;;;;;;5087557;28;20094;-69